sensor_id;sensor_type;location;lat;lon;timestamp;pressure;altitude;pressure_sealevel;temperature;humidity
84746;BME280;74975;51.922;6.480;2024-01-30T00:01:23;102598.69;;;7.67;86.71
84746;BME280;74975;51.922;6.480;2024-01-30T00:03:48;102603.50;;;7.62;87.26
84746;BME280;74975;51.922;6.480;2024-01-30T00:06:21;102595.09;;;7.68;87.00
84746;BME280;74975;51.922;6.480;2024-01-30T00:08:46;102599.81;;;7.74;87.20
84746;BME280;74975;51.922;6.480;2024-01-30T00:11:23;102594.56;;;7.74;86.77
84746;BME280;74975;51.922;6.480;2024-01-30T00:13:54;102590.00;;;7.76;86.77
84746;BME280;74975;51.922;6.480;2024-01-30T00:16:22;102594.69;;;7.63;86.38
84746;BME280;74975;51.922;6.480;2024-01-30T00:18:49;102590.41;;;7.62;86.60
84746;BME280;74975;51.922;6.480;2024-01-30T00:21:21;102587.66;;;7.63;86.43
84746;BME280;74975;51.922;6.480;2024-01-30T00:23:47;102581.56;;;7.82;86.16
84746;BME280;74975;51.922;6.480;2024-01-30T00:26:12;102581.56;;;7.72;86.04
84746;BME280;74975;51.922;6.480;2024-01-30T00:28:43;102583.66;;;7.69;86.76
84746;BME280;74975;51.922;6.480;2024-01-30T00:31:15;102577.03;;;7.65;86.87
84746;BME280;74975;51.922;6.480;2024-01-30T00:33:47;102585.47;;;7.59;87.01
84746;BME280;74975;51.922;6.480;2024-01-30T00:36:13;102582.94;;;7.67;86.37
84746;BME280;74975;51.922;6.480;2024-01-30T00:38:42;102593.16;;;7.60;86.79
84746;BME280;74975;51.922;6.480;2024-01-30T00:41:13;102585.72;;;7.65;86.48
84746;BME280;74975;51.922;6.480;2024-01-30T00:43:39;102583.09;;;7.65;86.44
84746;BME280;74975;51.922;6.480;2024-01-30T00:46:10;102589.16;;;7.75;86.42
84746;BME280;74975;51.922;6.480;2024-01-30T00:48:38;102586.41;;;7.77;85.80
84746;BME280;74975;51.922;6.480;2024-01-30T00:51:10;102596.78;;;7.69;86.12
84746;BME280;74975;51.922;6.480;2024-01-30T00:53:35;102592.06;;;7.63;86.98
84746;BME280;74975;51.922;6.480;2024-01-30T00:56:04;102589.97;;;7.47;86.22
84746;BME280;74975;51.922;6.480;2024-01-30T00:58:36;102587.22;;;7.29;87.18
84746;BME280;74975;51.922;6.480;2024-01-30T01:01:11;102583.34;;;7.24;88.05
84746;BME280;74975;51.922;6.480;2024-01-30T01:03:43;102588.84;;;7.21;87.33
84746;BME280;74975;51.922;6.480;2024-01-30T01:06:13;102590.34;;;7.14;88.03
84746;BME280;74975;51.922;6.480;2024-01-30T01:08:39;102584.28;;;7.13;88.35
84746;BME280;74975;51.922;6.480;2024-01-30T01:11:10;102592.81;;;7.06;89.07
84746;BME280;74975;51.922;6.480;2024-01-30T01:13:36;102587.88;;;7.03;88.56
84746;BME280;74975;51.922;6.480;2024-01-30T01:16:01;102581.63;;;6.94;88.59
84746;BME280;74975;51.922;6.480;2024-01-30T01:18:31;102582.31;;;6.96;88.63
84746;BME280;74975;51.922;6.480;2024-01-30T01:21:02;102579.88;;;7.04;88.48
84746;BME280;74975;51.922;6.480;2024-01-30T01:23:31;102583.03;;;6.98;88.43
84746;BME280;74975;51.922;6.480;2024-01-30T01:26:04;102580.53;;;6.97;88.45
84746;BME280;74975;51.922;6.480;2024-01-30T01:28:32;102578.72;;;6.88;88.77
84746;BME280;74975;51.922;6.480;2024-01-30T01:31:03;102575.09;;;6.79;89.13
84746;BME280;74975;51.922;6.480;2024-01-30T01:33:36;102579.97;;;6.84;89.58
84746;BME280;74975;51.922;6.480;2024-01-30T01:36:03;102578.44;;;6.81;89.72
84746;BME280;74975;51.922;6.480;2024-01-30T01:38:32;102574.16;;;6.80;89.39
84746;BME280;74975;51.922;6.480;2024-01-30T01:41:10;102578.13;;;6.75;89.03
84746;BME280;74975;51.922;6.480;2024-01-30T01:43:39;102575.34;;;6.67;90.23
84746;BME280;74975;51.922;6.480;2024-01-30T01:46:11;102580.19;;;6.71;90.13
84746;BME280;74975;51.922;6.480;2024-01-30T01:48:41;102573.97;;;6.72;90.17
84746;BME280;74975;51.922;6.480;2024-01-30T01:51:14;102569.06;;;6.79;90.25
84746;BME280;74975;51.922;6.480;2024-01-30T01:53:47;102565.72;;;6.77;90.04
84746;BME280;74975;51.922;6.480;2024-01-30T01:56:12;102563.25;;;6.75;90.01
84746;BME280;74975;51.922;6.480;2024-01-30T01:58:49;102566.81;;;6.74;89.69
84746;BME280;74975;51.922;6.480;2024-01-30T02:01:30;102559.94;;;6.73;90.16
84746;BME280;74975;51.922;6.480;2024-01-30T02:04:02;102553.19;;;6.71;90.04
84746;BME280;74975;51.922;6.480;2024-01-30T02:06:33;102556.06;;;6.68;89.70
84746;BME280;74975;51.922;6.480;2024-01-30T02:09:04;102556.63;;;6.71;89.30
84746;BME280;74975;51.922;6.480;2024-01-30T02:11:36;102552.50;;;6.69;90.04
84746;BME280;74975;51.922;6.480;2024-01-30T02:14:07;102551.22;;;6.63;90.36
84746;BME280;74975;51.922;6.480;2024-01-30T02:16:33;102549.41;;;6.54;90.62
84746;BME280;74975;51.922;6.480;2024-01-30T02:18:58;102547.75;;;6.53;90.72
84746;BME280;74975;51.922;6.480;2024-01-30T02:21:30;102543.94;;;6.57;91.28
84746;BME280;74975;51.922;6.480;2024-01-30T02:24:02;102545.41;;;6.59;90.09
84746;BME280;74975;51.922;6.480;2024-01-30T02:26:41;102545.97;;;6.53;90.70
84746;BME280;74975;51.922;6.480;2024-01-30T02:29:06;102546.91;;;6.52;90.47
84746;BME280;74975;51.922;6.480;2024-01-30T02:31:38;102540.31;;;6.58;90.37
84746;BME280;74975;51.922;6.480;2024-01-30T02:34:09;102537.03;;;6.56;91.23
84746;BME280;74975;51.922;6.480;2024-01-30T02:36:46;102531.22;;;6.52;91.01
84746;BME280;74975;51.922;6.480;2024-01-30T02:39:21;102529.59;;;6.61;90.40
84746;BME280;74975;51.922;6.480;2024-01-30T02:41:56;102530.69;;;6.58;90.61
84746;BME280;74975;51.922;6.480;2024-01-30T02:44:35;102534.16;;;6.59;90.61
84746;BME280;74975;51.922;6.480;2024-01-30T02:47:10;102528.09;;;6.68;90.46
84746;BME280;74975;51.922;6.480;2024-01-30T02:49:42;102534.19;;;6.78;89.76
84746;BME280;74975;51.922;6.480;2024-01-30T02:52:13;102534.75;;;6.82;89.47
84746;BME280;74975;51.922;6.480;2024-01-30T02:54:45;102529.53;;;6.91;89.54
84746;BME280;74975;51.922;6.480;2024-01-30T02:57:27;102527.63;;;6.93;89.59
84746;BME280;74975;51.922;6.480;2024-01-30T02:59:59;102524.44;;;6.90;89.09
84746;BME280;74975;51.922;6.480;2024-01-30T03:02:35;102526.91;;;6.91;89.34
84746;BME280;74975;51.922;6.480;2024-01-30T03:05:07;102520.31;;;6.87;89.40
84746;BME280;74975;51.922;6.480;2024-01-30T03:07:39;102519.75;;;6.84;89.44
84746;BME280;74975;51.922;6.480;2024-01-30T03:10:11;102520.59;;;6.94;89.30
84746;BME280;74975;51.922;6.480;2024-01-30T03:12:46;102511.50;;;6.98;89.14
84746;BME280;74975;51.922;6.480;2024-01-30T03:15:21;102513.44;;;6.86;89.80
84746;BME280;74975;51.922;6.480;2024-01-30T03:18:02;102515.06;;;6.87;88.82
84746;BME280;74975;51.922;6.480;2024-01-30T03:20:35;102510.66;;;6.78;89.93
84746;BME280;74975;51.922;6.480;2024-01-30T03:23:06;102508.72;;;6.80;90.64
84746;BME280;74975;51.922;6.480;2024-01-30T03:25:38;102500.47;;;6.94;89.31
84746;BME280;74975;51.922;6.480;2024-01-30T03:28:11;102493.03;;;6.90;89.10
84746;BME280;74975;51.922;6.480;2024-01-30T03:30:46;102499.94;;;7.00;89.02
84746;BME280;74975;51.922;6.480;2024-01-30T03:33:20;102492.91;;;7.01;88.66
84746;BME280;74975;51.922;6.480;2024-01-30T03:36:12;102494.84;;;7.08;89.06
84746;BME280;74975;51.922;6.480;2024-01-30T03:38:50;102492.34;;;6.97;88.49
84746;BME280;74975;51.922;6.480;2024-01-30T03:41:29;102492.75;;;6.93;88.74
84746;BME280;74975;51.922;6.480;2024-01-30T03:44:00;102495.25;;;7.04;88.07
84746;BME280;74975;51.922;6.480;2024-01-30T03:46:38;102491.41;;;6.98;88.55
84746;BME280;74975;51.922;6.480;2024-01-30T03:49:13;102487.94;;;6.88;89.38
84746;BME280;74975;51.922;6.480;2024-01-30T03:51:47;102488.50;;;7.11;88.88
84746;BME280;74975;51.922;6.480;2024-01-30T03:54:19;102491.25;;;7.19;87.68
84746;BME280;74975;51.922;6.480;2024-01-30T03:56:50;102489.59;;;7.18;87.71
84746;BME280;74975;51.922;6.480;2024-01-30T03:59:22;102492.50;;;7.24;87.43
84746;BME280;74975;51.922;6.480;2024-01-30T04:01:55;102485.88;;;7.20;88.07
84746;BME280;74975;51.922;6.480;2024-01-30T04:04:30;102482.88;;;7.15;88.05
84746;BME280;74975;51.922;6.480;2024-01-30T04:07:06;102493.34;;;7.15;88.05
84746;BME280;74975;51.922;6.480;2024-01-30T04:09:40;102484.78;;;7.23;87.76
84746;BME280;74975;51.922;6.480;2024-01-30T04:12:14;102487.13;;;7.26;87.40
84746;BME280;74975;51.922;6.480;2024-01-30T04:14:43;102483.25;;;7.20;87.49
84746;BME280;74975;51.922;6.480;2024-01-30T04:17:19;102483.56;;;7.17;88.19
84746;BME280;74975;51.922;6.480;2024-01-30T04:19:48;102468.25;;;7.22;87.37
84746;BME280;74975;51.922;6.480;2024-01-30T04:22:19;102474.03;;;7.16;88.31
84746;BME280;74975;51.922;6.480;2024-01-30T04:24:45;102462.44;;;7.28;87.61
84746;BME280;74975;51.922;6.480;2024-01-30T04:27:10;102461.19;;;7.32;87.57
84746;BME280;74975;51.922;6.480;2024-01-30T04:29:49;102453.91;;;7.36;87.10
84746;BME280;74975;51.922;6.480;2024-01-30T04:32:23;102457.63;;;7.33;87.05
84746;BME280;74975;51.922;6.480;2024-01-30T04:34:57;102462.19;;;7.31;87.00
84746;BME280;74975;51.922;6.480;2024-01-30T04:37:26;102451.84;;;7.40;87.10
84746;BME280;74975;51.922;6.480;2024-01-30T04:39:55;102452.53;;;7.42;87.33
84746;BME280;74975;51.922;6.480;2024-01-30T04:42:27;102455.56;;;7.47;86.95
84746;BME280;74975;51.922;6.480;2024-01-30T04:44:56;102459.13;;;7.46;86.74
84746;BME280;74975;51.922;6.480;2024-01-30T04:47:27;102455.81;;;7.44;86.54
84746;BME280;74975;51.922;6.480;2024-01-30T04:50:01;102462.84;;;7.43;87.00
84746;BME280;74975;51.922;6.480;2024-01-30T04:52:32;102471.41;;;7.45;86.51
84746;BME280;74975;51.922;6.480;2024-01-30T04:55:02;102477.06;;;7.41;86.78
84746;BME280;74975;51.922;6.480;2024-01-30T04:57:35;102477.72;;;7.52;86.26
84746;BME280;74975;51.922;6.480;2024-01-30T05:00:11;102475.69;;;7.46;86.92
84746;BME280;74975;51.922;6.480;2024-01-30T05:02:46;102474.59;;;7.39;87.26
84746;BME280;74975;51.922;6.480;2024-01-30T05:05:18;102470.19;;;7.40;87.11
84746;BME280;74975;51.922;6.480;2024-01-30T05:07:49;102454.88;;;7.45;86.98
84746;BME280;74975;51.922;6.480;2024-01-30T05:10:23;102464.78;;;7.41;87.27
84746;BME280;74975;51.922;6.480;2024-01-30T05:12:57;102456.94;;;7.41;87.67
84746;BME280;74975;51.922;6.480;2024-01-30T05:15:30;102457.50;;;7.45;87.03
84746;BME280;74975;51.922;6.480;2024-01-30T05:18:04;102458.44;;;7.53;86.89
84746;BME280;74975;51.922;6.480;2024-01-30T05:20:38;102453.63;;;7.49;86.97
84746;BME280;74975;51.922;6.480;2024-01-30T05:23:13;102459.13;;;7.46;86.82
84746;BME280;74975;51.922;6.480;2024-01-30T05:25:54;102464.63;;;7.43;87.32
84746;BME280;74975;51.922;6.480;2024-01-30T05:28:26;102458.72;;;7.41;87.02
84746;BME280;74975;51.922;6.480;2024-01-30T05:31:01;102465.34;;;7.54;87.01
84746;BME280;74975;51.922;6.480;2024-01-30T05:33:34;102461.31;;;7.50;85.99
84746;BME280;74975;51.922;6.480;2024-01-30T05:36:03;102453.19;;;7.44;87.13
84746;BME280;74975;51.922;6.480;2024-01-30T05:38:40;102461.59;;;7.38;87.15
84746;BME280;74975;51.922;6.480;2024-01-30T05:41:19;102457.88;;;7.40;87.32
84746;BME280;74975;51.922;6.480;2024-01-30T05:43:44;102456.38;;;7.38;86.94
84746;BME280;74975;51.922;6.480;2024-01-30T05:46:16;102455.41;;;7.39;87.04
84746;BME280;74975;51.922;6.480;2024-01-30T05:48:48;102456.34;;;7.47;87.02
84746;BME280;74975;51.922;6.480;2024-01-30T05:51:20;102449.31;;;7.48;86.94
84746;BME280;74975;51.922;6.480;2024-01-30T05:53:50;102457.50;;;7.45;86.72
84746;BME280;74975;51.922;6.480;2024-01-30T05:56:19;102452.63;;;7.50;87.17
84746;BME280;74975;51.922;6.480;2024-01-30T05:59:00;102458.03;;;7.48;86.50
84746;BME280;74975;51.922;6.480;2024-01-30T06:01:35;102458.28;;;7.55;86.62
84746;BME280;74975;51.922;6.480;2024-01-30T06:04:02;102460.63;;;7.48;86.55
84746;BME280;74975;51.922;6.480;2024-01-30T06:06:28;102462.16;;;7.41;86.77
84746;BME280;74975;51.922;6.480;2024-01-30T06:09:07;102457.22;;;7.28;88.04
84746;BME280;74975;51.922;6.480;2024-01-30T06:11:40;102455.97;;;7.23;87.64
84746;BME280;74975;51.922;6.480;2024-01-30T06:14:18;102463.81;;;7.32;87.87
84746;BME280;74975;51.922;6.480;2024-01-30T06:16:54;102467.94;;;7.35;87.07
84746;BME280;74975;51.922;6.480;2024-01-30T06:19:27;102459.72;;;7.30;87.49
84746;BME280;74975;51.922;6.480;2024-01-30T06:21:58;102468.78;;;7.26;87.76
84746;BME280;74975;51.922;6.480;2024-01-30T06:24:32;102467.16;;;7.35;87.93
84746;BME280;74975;51.922;6.480;2024-01-30T06:27:02;102459.97;;;7.37;87.04
84746;BME280;74975;51.922;6.480;2024-01-30T06:29:37;102451.84;;;7.30;87.85
84746;BME280;74975;51.922;6.480;2024-01-30T06:32:09;102450.03;;;7.30;87.93
84746;BME280;74975;51.922;6.480;2024-01-30T06:34:46;102455.00;;;7.33;87.31
84746;BME280;74975;51.922;6.480;2024-01-30T06:37:14;102452.38;;;7.33;87.69
84746;BME280;74975;51.922;6.480;2024-01-30T06:39:45;102445.34;;;7.34;87.43
84746;BME280;74975;51.922;6.480;2024-01-30T06:42:23;102448.81;;;7.35;87.26
84746;BME280;74975;51.922;6.480;2024-01-30T06:44:59;102457.34;;;7.46;87.11
84746;BME280;74975;51.922;6.480;2024-01-30T06:47:36;102451.13;;;7.47;86.91
84746;BME280;74975;51.922;6.480;2024-01-30T06:50:16;102450.84;;;7.50;86.42
84746;BME280;74975;51.922;6.480;2024-01-30T06:52:56;102456.09;;;7.50;86.77
84746;BME280;74975;51.922;6.480;2024-01-30T06:55:38;102463.09;;;7.50;87.23
84746;BME280;74975;51.922;6.480;2024-01-30T06:58:15;102463.25;;;7.48;87.22
84746;BME280;74975;51.922;6.480;2024-01-30T07:00:55;102460.09;;;7.45;87.84
84746;BME280;74975;51.922;6.480;2024-01-30T07:03:28;102460.09;;;7.45;87.37
84746;BME280;74975;51.922;6.480;2024-01-30T07:06:00;102463.00;;;7.42;88.07
84746;BME280;74975;51.922;6.480;2024-01-30T07:08:41;102472.22;;;7.46;87.04
84746;BME280;74975;51.922;6.480;2024-01-30T07:11:24;102468.50;;;7.39;87.62
84746;BME280;74975;51.922;6.480;2024-01-30T07:14:06;102469.19;;;7.50;87.42
84746;BME280;74975;51.922;6.480;2024-01-30T07:16:49;102480.66;;;7.49;87.10
84746;BME280;74975;51.922;6.480;2024-01-30T07:19:26;102470.44;;;7.46;86.99
84746;BME280;74975;51.922;6.480;2024-01-30T07:22:06;102474.00;;;7.45;87.67
84746;BME280;74975;51.922;6.480;2024-01-30T07:24:48;102479.41;;;7.44;88.04
84746;BME280;74975;51.922;6.480;2024-01-30T07:27:24;102476.78;;;7.44;87.44
84746;BME280;74975;51.922;6.480;2024-01-30T07:30:07;102481.34;;;7.42;87.52
84746;BME280;74975;51.922;6.480;2024-01-30T07:32:42;102477.63;;;7.44;88.18
84746;BME280;74975;51.922;6.480;2024-01-30T07:35:17;102485.06;;;7.49;88.00
84746;BME280;74975;51.922;6.480;2024-01-30T07:37:51;102493.84;;;7.57;87.90
84746;BME280;74975;51.922;6.480;2024-01-30T07:40:27;102494.69;;;7.58;87.15
84746;BME280;74975;51.922;6.480;2024-01-30T07:43:04;102498.28;;;7.57;87.80
84746;BME280;74975;51.922;6.480;2024-01-30T07:45:33;102501.16;;;7.63;87.63
84746;BME280;74975;51.922;6.480;2024-01-30T07:48:15;102502.13;;;7.62;87.36
84746;BME280;74975;51.922;6.480;2024-01-30T07:50:47;102496.34;;;7.59;87.75
84746;BME280;74975;51.922;6.480;2024-01-30T07:53:23;102503.53;;;7.66;87.69
84746;BME280;74975;51.922;6.480;2024-01-30T07:56:01;102494.56;;;7.69;87.34
84746;BME280;74975;51.922;6.480;2024-01-30T07:58:37;102507.06;;;7.75;86.70
84746;BME280;74975;51.922;6.480;2024-01-30T08:01:09;102512.16;;;7.76;86.96
84746;BME280;74975;51.922;6.480;2024-01-30T08:03:41;102508.84;;;7.84;86.77
84746;BME280;74975;51.922;6.480;2024-01-30T08:06:15;102509.16;;;7.81;86.66
84746;BME280;74975;51.922;6.480;2024-01-30T08:08:46;102517.69;;;7.83;87.16
84746;BME280;74975;51.922;6.480;2024-01-30T08:11:29;102507.75;;;7.86;86.89
84746;BME280;74975;51.922;6.480;2024-01-30T08:14:10;102507.47;;;7.89;87.17
84746;BME280;74975;51.922;6.480;2024-01-30T08:16:49;102506.47;;;8.00;86.78
84746;BME280;74975;51.922;6.480;2024-01-30T08:19:21;102506.19;;;7.93;87.15
84746;BME280;74975;51.922;6.480;2024-01-30T08:21:58;102505.88;;;8.06;86.10
84746;BME280;74975;51.922;6.480;2024-01-30T08:24:32;102519.00;;;8.06;87.14
84746;BME280;74975;51.922;6.480;2024-01-30T08:27:08;102517.06;;;8.08;86.99
84746;BME280;74975;51.922;6.480;2024-01-30T08:29:44;102512.94;;;8.06;86.95
84746;BME280;74975;51.922;6.480;2024-01-30T08:32:21;102516.50;;;8.14;85.97
84746;BME280;74975;51.922;6.480;2024-01-30T08:34:56;102521.06;;;8.12;86.08
84746;BME280;74975;51.922;6.480;2024-01-30T08:37:32;102517.03;;;8.18;86.79
84746;BME280;74975;51.922;6.480;2024-01-30T08:40:05;102515.22;;;8.28;85.60
84746;BME280;74975;51.922;6.480;2024-01-30T08:42:36;102517.53;;;8.40;85.19
84746;BME280;74975;51.922;6.480;2024-01-30T08:45:12;102518.22;;;8.42;85.51
84746;BME280;74975;51.922;6.480;2024-01-30T08:47:51;102523.78;;;8.39;85.99
84746;BME280;74975;51.922;6.480;2024-01-30T08:50:30;102529.69;;;8.41;85.34
84746;BME280;74975;51.922;6.480;2024-01-30T08:53:06;102526.78;;;8.44;85.71
84746;BME280;74975;51.922;6.480;2024-01-30T08:55:42;102532.84;;;8.45;85.12
84746;BME280;74975;51.922;6.480;2024-01-30T08:58:22;102529.81;;;8.40;86.49
84746;BME280;74975;51.922;6.480;2024-01-30T09:00:56;102530.66;;;8.40;86.66
84746;BME280;74975;51.922;6.480;2024-01-30T09:03:25;102535.63;;;8.43;86.22
84746;BME280;74975;51.922;6.480;2024-01-30T09:05:56;102535.03;;;8.49;85.43
84746;BME280;74975;51.922;6.480;2024-01-30T09:08:25;102532.13;;;8.52;85.76
84746;BME280;74975;51.922;6.480;2024-01-30T09:10:58;102543.41;;;8.62;85.49
84746;BME280;74975;51.922;6.480;2024-01-30T09:13:30;102542.22;;;8.75;84.54
84746;BME280;74975;51.922;6.480;2024-01-30T09:16:01;102535.13;;;8.85;84.80
84746;BME280;74975;51.922;6.480;2024-01-30T09:18:32;102533.13;;;8.96;84.41
84746;BME280;74975;51.922;6.480;2024-01-30T09:21:04;102537.94;;;9.01;83.93
84746;BME280;74975;51.922;6.480;2024-01-30T09:23:36;102538.97;;;9.08;83.81
84746;BME280;74975;51.922;6.480;2024-01-30T09:26:07;102530.53;;;9.14;83.94
84746;BME280;74975;51.922;6.480;2024-01-30T09:28:43;102520.09;;;9.22;83.18
84746;BME280;74975;51.922;6.480;2024-01-30T09:31:17;102529.31;;;9.26;83.63
84746;BME280;74975;51.922;6.480;2024-01-30T09:33:49;102524.91;;;9.26;83.70
84746;BME280;74975;51.922;6.480;2024-01-30T09:36:22;102535.34;;;9.36;82.95
84746;BME280;74975;51.922;6.480;2024-01-30T09:38:54;102539.75;;;9.53;83.64
84746;BME280;74975;51.922;6.480;2024-01-30T09:41:27;102536.41;;;9.69;82.52
84746;BME280;74975;51.922;6.480;2024-01-30T09:44:01;102533.41;;;9.81;81.75
84746;BME280;74975;51.922;6.480;2024-01-30T09:46:37;102551.59;;;9.75;82.09
84746;BME280;74975;51.922;6.480;2024-01-30T09:49:09;102545.50;;;9.74;83.08
84746;BME280;74975;51.922;6.480;2024-01-30T09:51:45;102543.53;;;9.76;81.87
84746;BME280;74975;51.922;6.480;2024-01-30T09:54:21;102546.16;;;9.76;82.30
84746;BME280;74975;51.922;6.480;2024-01-30T09:56:57;102540.31;;;9.82;81.95
84746;BME280;74975;51.922;6.480;2024-01-30T09:59:29;102543.31;;;9.87;81.95
84746;BME280;74975;51.922;6.480;2024-01-30T10:02:00;102556.66;;;9.94;82.24
84746;BME280;74975;51.922;6.480;2024-01-30T10:04:33;102555.25;;;10.00;81.99
84746;BME280;74975;51.922;6.480;2024-01-30T10:07:08;102554.94;;;10.03;81.69
84746;BME280;74975;51.922;6.480;2024-01-30T10:09:45;102560.69;;;10.06;81.39
84746;BME280;74975;51.922;6.480;2024-01-30T10:12:20;102561.94;;;10.12;81.48
84746;BME280;74975;51.922;6.480;2024-01-30T10:14:55;102558.00;;;10.16;81.61
84746;BME280;74975;51.922;6.480;2024-01-30T10:17:27;102557.56;;;10.03;81.46
84746;BME280;74975;51.922;6.480;2024-01-30T10:20:03;102550.28;;;9.96;81.85
84746;BME280;74975;51.922;6.480;2024-01-30T10:22:40;102553.28;;;10.02;82.62
84746;BME280;74975;51.922;6.480;2024-01-30T10:25:12;102548.50;;;10.05;81.31
84746;BME280;74975;51.922;6.480;2024-01-30T10:28:26;102557.16;;;10.15;81.56
84746;BME280;74975;51.922;6.480;2024-01-30T10:31:02;102553.91;;;10.21;81.38
84746;BME280;74975;51.922;6.480;2024-01-30T10:33:41;102557.06;;;10.25;80.82
84746;BME280;74975;51.922;6.480;2024-01-30T10:36:16;102558.09;;;10.32;81.23
84746;BME280;74975;51.922;6.480;2024-01-30T10:39:05;102568.34;;;10.43;81.78
84746;BME280;74975;51.922;6.480;2024-01-30T10:41:54;102566.38;;;10.45;80.70
84746;BME280;74975;51.922;6.480;2024-01-30T10:58:08;102557.22;;;10.23;82.59
84746;BME280;74975;51.922;6.480;2024-01-30T11:00:43;102562.84;;;10.28;82.03
84746;BME280;74975;51.922;6.480;2024-01-30T11:03:24;102562.19;;;10.34;82.51
84746;BME280;74975;51.922;6.480;2024-01-30T11:06:02;102562.72;;;10.38;82.52
84746;BME280;74975;51.922;6.480;2024-01-30T11:08:41;102559.16;;;10.47;82.31
84746;BME280;74975;51.922;6.480;2024-01-30T11:11:40;102566.06;;;10.48;82.48
84746;BME280;74975;51.922;6.480;2024-01-30T11:14:51;102563.81;;;10.53;82.76
84746;BME280;74975;51.922;6.480;2024-01-30T11:20:59;102564.50;;;10.63;82.19
84746;BME280;74975;51.922;6.480;2024-01-30T11:23:34;102563.69;;;10.63;82.67
84746;BME280;74975;51.922;6.480;2024-01-30T11:26:07;102565.00;;;10.67;82.83
84746;BME280;74975;51.922;6.480;2024-01-30T11:28:42;102564.22;;;10.74;83.05
84746;BME280;74975;51.922;6.480;2024-01-30T11:31:18;102568.16;;;10.78;82.58
84746;BME280;74975;51.922;6.480;2024-01-30T11:33:56;102569.16;;;10.77;82.60
84746;BME280;74975;51.922;6.480;2024-01-30T11:36:38;102556.97;;;10.76;83.16
84746;BME280;74975;51.922;6.480;2024-01-30T11:39:10;102562.44;;;10.83;82.91
84746;BME280;74975;51.922;6.480;2024-01-30T11:41:43;102569.22;;;10.85;82.60
84746;BME280;74975;51.922;6.480;2024-01-30T11:44:21;102573.69;;;11.01;82.95
84746;BME280;74975;51.922;6.480;2024-01-30T11:46:53;102557.72;;;11.10;81.51
84746;BME280;74975;51.922;6.480;2024-01-30T11:49:25;102568.97;;;11.20;82.08
84746;BME280;74975;51.922;6.480;2024-01-30T11:51:57;102559.91;;;11.23;81.99
84746;BME280;74975;51.922;6.480;2024-01-30T11:54:28;102555.59;;;11.22;81.89
84746;BME280;74975;51.922;6.480;2024-01-30T11:57:00;102555.28;;;11.25;81.51
84746;BME280;74975;51.922;6.480;2024-01-30T11:59:37;102557.13;;;11.41;81.74
84746;BME280;74975;51.922;6.480;2024-01-30T12:02:09;102553.84;;;11.55;81.62
84746;BME280;74975;51.922;6.480;2024-01-30T12:04:49;102557.13;;;11.49;81.09
84746;BME280;74975;51.922;6.480;2024-01-30T12:07:20;102558.09;;;11.40;80.52
84746;BME280;74975;51.922;6.480;2024-01-30T12:09:53;102549.53;;;11.38;80.99
84746;BME280;74975;51.922;6.480;2024-01-30T12:12:30;102552.00;;;11.39;80.63
84746;BME280;74975;51.922;6.480;2024-01-30T12:15:02;102546.56;;;11.33;80.67
84746;BME280;74975;51.922;6.480;2024-01-30T12:17:37;102549.69;;;11.28;82.10
84746;BME280;74975;51.922;6.480;2024-01-30T12:20:17;102556.13;;;11.25;81.81
84746;BME280;74975;51.922;6.480;2024-01-30T12:22:52;102553.81;;;11.22;82.29
84746;BME280;74975;51.922;6.480;2024-01-30T12:25:25;102558.09;;;11.23;82.51
84746;BME280;74975;51.922;6.480;2024-01-30T12:27:57;102560.25;;;11.28;82.51
84746;BME280;74975;51.922;6.480;2024-01-30T12:30:27;102554.66;;;11.31;82.61
84746;BME280;74975;51.922;6.480;2024-01-30T12:33:03;102555.47;;;11.32;82.44
84746;BME280;74975;51.922;6.480;2024-01-30T12:35:39;102553.16;;;11.37;82.56
84746;BME280;74975;51.922;6.480;2024-01-30T12:38:12;102550.50;;;11.37;82.20
84746;BME280;74975;51.922;6.480;2024-01-30T12:40:44;102555.66;;;11.38;81.90
84746;BME280;74975;51.922;6.480;2024-01-30T12:43:19;102550.22;;;11.32;82.08
84746;BME280;74975;51.922;6.480;2024-01-30T12:45:54;102555.81;;;11.28;82.06
84746;BME280;74975;51.922;6.480;2024-01-30T12:48:30;102558.44;;;11.28;82.50
84746;BME280;74975;51.922;6.480;2024-01-30T12:51:01;102561.91;;;11.29;82.44
84746;BME280;74975;51.922;6.480;2024-01-30T12:53:38;102557.44;;;11.38;82.00
84746;BME280;74975;51.922;6.480;2024-01-30T12:56:09;102564.22;;;11.40;82.62
84746;BME280;74975;51.922;6.480;2024-01-30T12:58:42;102557.28;;;11.39;82.30
84746;BME280;74975;51.922;6.480;2024-01-30T13:01:14;102559.09;;;11.31;82.66
84746;BME280;74975;51.922;6.480;2024-01-30T13:03:52;102568.16;;;11.28;83.33
84746;BME280;74975;51.922;6.480;2024-01-30T13:06:30;102563.06;;;11.26;82.83
84746;BME280;74975;51.922;6.480;2024-01-30T13:09:10;102551.56;;;11.68;81.37
84746;BME280;74975;51.922;6.480;2024-01-30T13:11:46;102559.44;;;12.08;80.54
84746;BME280;74975;51.922;6.480;2024-01-30T13:14:33;102559.25;;;12.18;80.06
84746;BME280;74975;51.922;6.480;2024-01-30T13:17:12;102564.22;;;12.13;78.34
84746;BME280;74975;51.922;6.480;2024-01-30T13:19:56;102558.91;;;12.29;76.81
84746;BME280;74975;51.922;6.480;2024-01-30T13:22:34;102569.72;;;12.50;76.59
84746;BME280;74975;51.922;6.480;2024-01-30T13:25:10;102563.88;;;13.01;74.20
84746;BME280;74975;51.922;6.480;2024-01-30T13:27:48;102561.72;;;13.05;71.31
84746;BME280;74975;51.922;6.480;2024-01-30T13:30:29;102554.94;;;13.02;70.36
84746;BME280;74975;51.922;6.480;2024-01-30T13:33:12;102565.03;;;13.07;68.02
84746;BME280;74975;51.922;6.480;2024-01-30T13:35:46;102564.00;;;13.16;66.24
84746;BME280;74975;51.922;6.480;2024-01-30T13:38:29;102576.41;;;13.38;65.28
84746;BME280;74975;51.922;6.480;2024-01-30T13:41:00;102563.59;;;12.96;67.95
84746;BME280;74975;51.922;6.480;2024-01-30T13:43:42;102570.59;;;12.42;69.34
84746;BME280;74975;51.922;6.480;2024-01-30T13:46:22;102572.81;;;12.07;71.48
84746;BME280;74975;51.922;6.480;2024-01-30T13:48:57;102565.72;;;11.83;71.12
84746;BME280;74975;51.922;6.480;2024-01-30T13:51:36;102578.75;;;11.68;72.01